createdAt,value
2022-12-01T00:01:41.923Z,19.26
2022-12-01T00:04:08.498Z,19.27
2022-12-01T00:06:35.038Z,19.27
2022-12-01T00:09:20.474Z,19.24
2022-12-01T00:11:47.064Z,19.22
2022-12-01T00:14:13.624Z,19.14
2022-12-01T00:16:41.067Z,19.02
2022-12-01T00:19:08.729Z,18.91
2022-12-01T00:21:35.193Z,18.82
2022-12-01T00:24:01.671Z,18.77
2022-12-01T00:26:28.401Z,18.73
2022-12-01T00:28:56.035Z,18.69
2022-12-01T00:31:23.080Z,18.64
2022-12-01T00:33:49.603Z,18.60
2022-12-01T00:36:16.072Z,18.57
2022-12-01T00:38:42.894Z,18.54
2022-12-01T00:41:09.429Z,18.48
2022-12-01T00:43:35.977Z,18.37
2022-12-01T00:46:02.507Z,18.29
2022-12-01T00:48:28.981Z,18.22
2022-12-01T00:50:55.737Z,18.15
2022-12-01T00:53:22.442Z,18.11
2022-12-01T00:55:48.918Z,18.02
2022-12-01T00:58:15.461Z,17.94
2022-12-01T01:00:42.947Z,17.93
2022-12-01T01:03:09.858Z,17.91
2022-12-01T01:05:36.894Z,17.95
2022-12-01T01:08:06.537Z,17.96
2022-12-01T01:10:33.236Z,17.95
2022-12-01T01:12:59.638Z,17.91
2022-12-01T01:15:26.183Z,17.82
2022-12-01T01:17:52.765Z,17.76
2022-12-01T01:20:19.242Z,17.73
2022-12-01T01:22:45.771Z,17.74
2022-12-01T01:25:12.228Z,17.71
2022-12-01T01:27:38.692Z,17.70
2022-12-01T01:30:05.479Z,17.69
2022-12-01T01:32:31.901Z,17.70
2022-12-01T01:34:58.298Z,17.72
2022-12-01T01:37:24.834Z,17.67
2022-12-01T01:39:51.444Z,17.65
2022-12-01T01:42:19.896Z,17.63
2022-12-01T01:44:57.067Z,17.61
2022-12-01T01:47:30.637Z,17.56
2022-12-01T01:49:59.509Z,17.59
2022-12-01T01:52:27.648Z,17.58
2022-12-01T01:54:55.315Z,17.59
2022-12-01T01:57:29.858Z,17.58
2022-12-01T02:00:02.450Z,17.60
2022-12-01T02:02:28.941Z,17.58
2022-12-01T02:04:58.709Z,17.56
2022-12-01T02:07:25.504Z,17.55
2022-12-01T02:09:52.614Z,17.54
2022-12-01T02:12:38.332Z,17.49
2022-12-01T02:15:05.001Z,17.43
2022-12-01T02:17:31.386Z,17.40
2022-12-01T02:20:07.039Z,17.40
2022-12-01T02:22:33.426Z,17.40
2022-12-01T02:25:25.857Z,17.43
2022-12-01T02:27:54.998Z,17.46
2022-12-01T02:30:43.798Z,17.48
2022-12-01T02:33:16.381Z,17.47
2022-12-01T02:35:48.981Z,17.44
2022-12-01T02:38:18.157Z,17.43
2022-12-01T02:40:44.616Z,17.42
2022-12-01T02:43:31.328Z,17.42
2022-12-01T02:46:16.773Z,17.41
2022-12-01T02:48:46.023Z,17.41
2022-12-01T02:51:14.766Z,17.39
2022-12-01T02:53:41.341Z,17.39
2022-12-01T02:56:10.769Z,17.41
2022-12-01T02:58:37.175Z,17.39
2022-12-01T03:01:10.710Z,17.35
2022-12-01T03:03:56.042Z,17.34
2022-12-01T03:06:41.233Z,17.32
2022-12-01T03:09:18.326Z,17.31
2022-12-01T03:11:50.377Z,17.28
2022-12-01T03:14:35.569Z,17.22
2022-12-01T03:17:05.263Z,17.18
2022-12-01T03:19:31.631Z,17.20
2022-12-01T03:21:58.066Z,17.22
2022-12-01T03:24:26.376Z,17.22
2022-12-01T03:26:57.086Z,17.18
2022-12-01T03:29:26.229Z,17.16
2022-12-01T03:31:55.247Z,17.17
2022-12-01T03:34:25.840Z,17.21
2022-12-01T03:37:04.689Z,17.19
2022-12-01T03:39:35.481Z,17.17
2022-12-01T03:42:18.205Z,17.09
2022-12-01T03:44:48.085Z,17.08
2022-12-01T03:47:30.953Z,17.09
2022-12-01T03:49:58.169Z,17.11
2022-12-01T03:52:43.370Z,17.15
2022-12-01T03:55:22.124Z,17.11
2022-12-01T03:57:51.940Z,17.08
2022-12-01T04:00:19.123Z,17.08
2022-12-01T04:02:45.767Z,17.07
2022-12-01T04:05:12.542Z,17.11
2022-12-01T04:07:39.500Z,17.14
2022-12-01T04:10:07.006Z,17.16
2022-12-01T04:12:33.525Z,17.18
2022-12-01T04:15:01.264Z,17.20
2022-12-01T04:17:28.417Z,17.22
2022-12-01T04:19:54.896Z,17.19
2022-12-01T04:22:21.830Z,17.17
2022-12-01T04:24:48.245Z,17.17
2022-12-01T04:27:14.708Z,17.17
2022-12-01T04:29:41.107Z,17.15
2022-12-01T04:32:07.562Z,17.15
2022-12-01T04:34:34.033Z,17.14
2022-12-01T04:37:00.630Z,17.12
2022-12-01T04:39:27.037Z,17.11
2022-12-01T04:41:53.521Z,17.09
2022-12-01T04:44:20.064Z,17.06
2022-12-01T04:46:46.568Z,17.03
2022-12-01T04:49:13.037Z,17.05
2022-12-01T04:51:39.506Z,17.05
2022-12-01T04:54:06.021Z,17.02
2022-12-01T04:56:33.602Z,17.03
2022-12-01T04:59:00.444Z,17.02
2022-12-01T05:01:27.098Z,17.05
2022-12-01T05:03:53.691Z,17.08
2022-12-01T05:06:22.070Z,17.11
2022-12-01T05:08:48.643Z,17.14
2022-12-01T05:11:15.425Z,17.14
2022-12-01T05:13:42.804Z,17.19
2022-12-01T05:16:09.537Z,17.21
2022-12-01T05:18:36.121Z,17.21
2022-12-01T05:21:04.071Z,17.17
2022-12-01T05:23:32.435Z,17.16
2022-12-01T05:25:59.171Z,17.15
2022-12-01T05:28:26.818Z,17.14
2022-12-01T05:30:54.286Z,17.14
2022-12-01T05:33:21.294Z,17.16
2022-12-01T05:35:48.434Z,17.18
2022-12-01T05:38:15.162Z,17.22
2022-12-01T05:40:41.572Z,17.20
2022-12-01T05:43:08.446Z,17.15
2022-12-01T05:45:35.184Z,17.13
2022-12-01T05:48:02.126Z,17.13
2022-12-01T05:50:29.441Z,17.12
2022-12-01T05:52:56.015Z,17.14
2022-12-01T05:55:22.444Z,17.18
2022-12-01T05:57:48.911Z,17.20
2022-12-01T06:00:15.559Z,17.20
2022-12-01T06:02:42.073Z,17.18
2022-12-01T06:05:09.477Z,17.18
2022-12-01T06:07:36.096Z,17.13
2022-12-01T06:10:03.033Z,17.09
2022-12-01T06:12:29.452Z,17.08
2022-12-01T06:14:55.867Z,17.08
2022-12-01T06:17:22.313Z,17.09
2022-12-01T06:19:48.930Z,17.11
2022-12-01T06:22:15.529Z,17.11
2022-12-01T06:24:41.917Z,17.11
2022-12-01T06:27:08.404Z,17.11
2022-12-01T06:29:39.075Z,17.14
2022-12-01T06:32:08.444Z,17.18
2022-12-01T06:34:34.947Z,17.18
2022-12-01T06:37:01.414Z,17.20
2022-12-01T06:39:27.827Z,17.21
2022-12-01T06:41:54.394Z,17.21
2022-12-01T06:44:20.882Z,17.15
2022-12-01T06:46:47.337Z,17.12
2022-12-01T06:49:13.778Z,17.09
2022-12-01T06:51:40.428Z,17.05
2022-12-01T06:54:06.905Z,17.02
2022-12-01T06:56:33.385Z,17.02
2022-12-01T06:59:00.386Z,17.00
2022-12-01T07:01:27.092Z,17.02
2022-12-01T07:03:53.618Z,17.02
2022-12-01T07:06:20.090Z,17.01
2022-12-01T07:08:46.567Z,17.02
2022-12-01T07:11:14.070Z,17.03
2022-12-01T07:13:45.272Z,17.04
2022-12-01T07:16:11.861Z,17.00
2022-12-01T07:18:38.716Z,16.94
2022-12-01T07:21:07.161Z,16.92
2022-12-01T07:23:33.981Z,16.88
2022-12-01T07:26:00.399Z,16.81
2022-12-01T07:28:27.158Z,16.73
2022-12-01T07:30:53.692Z,16.70
2022-12-01T07:33:20.217Z,16.69
2022-12-01T07:35:46.726Z,16.66
2022-12-01T07:38:15.555Z,16.69
2022-12-01T07:40:45.724Z,16.74
2022-12-01T07:43:12.937Z,16.79
2022-12-01T07:45:39.445Z,16.80
2022-12-01T07:48:06.167Z,16.83
2022-12-01T07:50:32.640Z,16.83
2022-12-01T07:52:59.089Z,16.83
2022-12-01T07:55:25.548Z,16.86
2022-12-01T07:57:52.002Z,16.86
2022-12-01T08:00:18.538Z,16.88
2022-12-01T08:02:45.036Z,16.86
2022-12-01T08:05:11.509Z,16.84
2022-12-01T08:07:38.070Z,16.83
2022-12-01T08:10:04.687Z,16.85
2022-12-01T08:12:31.081Z,16.88
2022-12-01T08:14:57.546Z,16.90
2022-12-01T08:17:23.933Z,16.91
2022-12-01T08:19:50.784Z,16.94
2022-12-01T08:22:17.429Z,16.97
2022-12-01T08:24:43.973Z,17.00
2022-12-01T08:27:10.392Z,17.00
2022-12-01T08:29:36.827Z,17.02
2022-12-01T08:32:03.391Z,17.02
2022-12-01T08:34:29.837Z,17.04
2022-12-01T08:36:56.344Z,17.06
2022-12-01T08:39:22.986Z,17.07
2022-12-01T08:41:49.410Z,17.09
2022-12-01T08:44:15.961Z,17.11
2022-12-01T08:46:42.517Z,17.13
2022-12-01T08:49:09.111Z,17.14
2022-12-01T08:51:36.431Z,17.15
2022-12-01T08:54:04.018Z,17.17
2022-12-01T08:56:32.271Z,17.18
2022-12-01T08:58:59.140Z,17.17
2022-12-01T09:01:26.026Z,17.17
2022-12-01T09:04:08.915Z,17.15
2022-12-01T09:06:40.626Z,17.17
2022-12-01T09:09:08.225Z,17.15
2022-12-01T09:11:34.678Z,17.14
2022-12-01T09:14:01.158Z,17.16
2022-12-01T09:16:27.860Z,17.19
2022-12-01T09:18:54.767Z,17.20
2022-12-01T09:21:22.853Z,17.27
2022-12-01T09:23:50.146Z,17.31
2022-12-01T09:26:19.041Z,17.36
2022-12-01T09:28:45.906Z,17.41
2022-12-01T09:31:13.194Z,17.48
2022-12-01T09:33:40.076Z,17.53
2022-12-01T09:36:07.387Z,17.59
2022-12-01T09:38:35.178Z,17.63
2022-12-01T09:41:03.171Z,17.66
2022-12-01T09:43:34.074Z,17.69
2022-12-01T09:46:02.689Z,17.72
2022-12-01T09:48:31.486Z,17.75
2022-12-01T09:50:58.039Z,17.76
2022-12-01T09:53:26.270Z,17.78
2022-12-01T09:55:53.147Z,17.79
2022-12-01T09:58:26.890Z,17.75
2022-12-01T10:00:54.171Z,17.74
2022-12-01T10:03:26.400Z,17.71
2022-12-01T10:06:25.921Z,17.74
2022-12-01T10:08:50.362Z,17.77
2022-12-01T10:11:24.568Z,17.79
2022-12-01T10:13:51.039Z,17.80
2022-12-01T10:16:24.573Z,17.83
2022-12-01T10:19:01.463Z,17.84
2022-12-01T10:21:48.611Z,17.81
2022-12-01T10:24:18.180Z,17.85
2022-12-01T10:27:07.859Z,17.87
2022-12-01T10:29:49.937Z,17.75
2022-12-01T10:32:16.602Z,17.73
2022-12-01T10:34:43.378Z,17.74
2022-12-01T10:37:21.593Z,17.75
2022-12-01T10:39:50.271Z,17.74
2022-12-01T10:42:16.790Z,17.75
2022-12-01T10:44:44.280Z,17.75
2022-12-01T10:47:21.633Z,17.77
2022-12-01T10:49:48.752Z,17.78
2022-12-01T10:52:33.931Z,17.78
2022-12-01T10:55:00.802Z,17.79
2022-12-01T10:57:29.380Z,17.72
2022-12-01T10:59:57.345Z,17.73
2022-12-01T11:02:26.110Z,17.71
2022-12-01T11:04:52.860Z,17.70
2022-12-01T11:07:22.042Z,17.67
2022-12-01T11:09:55.246Z,17.68
2022-12-01T11:12:23.111Z,17.72
2022-12-01T11:14:51.024Z,17.75
2022-12-01T11:17:29.220Z,17.76
2022-12-01T11:19:55.932Z,17.80
2022-12-01T11:22:22.390Z,17.83
2022-12-01T11:24:59.473Z,17.85
2022-12-01T11:27:28.465Z,17.88
2022-12-01T11:29:56.234Z,17.90
2022-12-01T11:32:33.763Z,17.92
2022-12-01T11:35:05.250Z,17.94
2022-12-01T11:37:35.798Z,17.97
2022-12-01T11:40:16.214Z,17.99
2022-12-01T11:42:46.990Z,18.00
2022-12-01T11:45:25.289Z,18.00
2022-12-01T11:48:18.753Z,18.02
2022-12-01T11:50:59.541Z,18.02
2022-12-01T11:53:25.913Z,17.98
2022-12-01T11:55:52.304Z,17.97
2022-12-01T11:58:18.818Z,17.97
2022-12-01T12:00:53.293Z,17.95
2022-12-01T12:03:35.356Z,17.97
2022-12-01T12:06:40.934Z,17.96
2022-12-01T12:09:02.726Z,17.97
2022-12-01T12:11:40.536Z,17.98
2022-12-01T12:14:06.943Z,17.96
2022-12-01T12:16:52.700Z,17.98
2022-12-01T12:19:33.940Z,17.95
2022-12-01T12:22:21.110Z,17.91
2022-12-01T12:25:13.079Z,17.91
2022-12-01T12:27:46.944Z,17.92
2022-12-01T12:30:13.392Z,17.95
2022-12-01T12:32:58.745Z,17.96
2022-12-01T12:35:28.114Z,17.98
2022-12-01T12:38:04.583Z,17.98
2022-12-01T12:40:34.084Z,17.99
2022-12-01T12:43:00.483Z,17.99
2022-12-01T12:45:33.086Z,17.99
2022-12-01T12:48:26.042Z,17.99
2022-12-01T12:50:58.367Z,17.98
2022-12-01T12:53:27.861Z,17.98
2022-12-01T12:55:58.141Z,17.98
2022-12-01T12:58:33.414Z,17.99
2022-12-01T13:01:03.555Z,18.00
2022-12-01T13:03:48.777Z,18.01
2022-12-01T13:06:19.214Z,18.03
2022-12-01T13:08:52.836Z,18.05
2022-12-01T13:11:22.042Z,18.05
2022-12-01T13:13:48.535Z,18.08
2022-12-01T13:16:26.187Z,18.11
2022-12-01T13:19:03.160Z,18.12
2022-12-01T13:21:36.402Z,18.14
2022-12-01T13:24:03.839Z,18.19
2022-12-01T13:26:30.975Z,18.17
2022-12-01T13:28:58.336Z,18.20
2022-12-01T13:31:24.936Z,18.22
2022-12-01T13:33:57.752Z,18.23
2022-12-01T13:36:45.644Z,18.25
2022-12-01T13:39:27.909Z,18.26
2022-12-01T13:41:59.015Z,18.28
2022-12-01T13:44:27.290Z,18.29
2022-12-01T13:46:58.635Z,18.31
2022-12-01T13:49:43.921Z,18.32
2022-12-01T13:52:36.678Z,18.33
2022-12-01T13:55:12.234Z,18.33
2022-12-01T13:57:38.891Z,18.34
2022-12-01T14:00:24.013Z,18.37
2022-12-01T14:03:09.311Z,18.38
2022-12-01T14:05:41.695Z,18.39
2022-12-01T14:08:22.613Z,18.41
2022-12-01T14:11:12.657Z,18.41
2022-12-01T14:13:48.124Z,18.41
2022-12-01T14:16:15.181Z,18.41
2022-12-01T14:18:59.808Z,18.42
2022-12-01T14:21:47.054Z,18.42
2022-12-01T14:24:34.388Z,18.43
2022-12-01T14:27:01.398Z,18.42
2022-12-01T14:29:30.646Z,18.44
2022-12-01T14:32:00.183Z,18.46
2022-12-01T14:34:29.494Z,18.45
2022-12-01T14:36:58.843Z,18.46
2022-12-01T14:39:35.732Z,18.47
2022-12-01T14:42:11.442Z,18.45
2022-12-01T14:44:41.010Z,18.45
2022-12-01T14:47:10.695Z,18.43
2022-12-01T14:49:52.461Z,18.41
2022-12-01T14:52:27.963Z,18.39
2022-12-01T14:54:59.261Z,18.38
2022-12-01T14:57:38.634Z,18.37
2022-12-01T15:00:06.676Z,18.34
2022-12-01T15:02:33.435Z,18.34
2022-12-01T15:05:08.294Z,18.33
2022-12-01T15:07:38.953Z,18.31
2022-12-01T15:10:06.422Z,18.29
2022-12-01T15:12:33.585Z,18.28
2022-12-01T15:15:00.060Z,18.27
2022-12-01T15:17:31.338Z,18.27
2022-12-01T15:19:58.597Z,18.25
2022-12-01T15:22:28.918Z,18.24
2022-12-01T15:24:55.955Z,18.24
2022-12-01T15:27:29.990Z,18.23
2022-12-01T15:29:58.259Z,18.21
2022-12-01T15:32:25.879Z,18.20
2022-12-01T15:34:53.818Z,18.19
2022-12-01T15:37:24.847Z,18.17
2022-12-01T15:39:53.485Z,18.15
2022-12-01T15:42:25.014Z,18.15
2022-12-01T15:45:02.240Z,18.12
2022-12-01T15:47:36.906Z,18.10
2022-12-01T15:50:04.690Z,18.08
2022-12-01T15:52:31.582Z,18.08
2022-12-01T15:55:02.097Z,18.07
2022-12-01T15:57:28.822Z,18.08
2022-12-01T15:59:56.877Z,18.07
2022-12-01T16:02:25.956Z,18.07
2022-12-01T16:05:00.336Z,18.06
2022-12-01T16:07:50.230Z,18.06
2022-12-01T16:10:31.475Z,18.06
2022-12-01T16:13:16.975Z,18.04
2022-12-01T16:15:44.110Z,18.04
2022-12-01T16:18:26.205Z,18.03
2022-12-01T16:20:52.752Z,18.01
2022-12-01T16:23:23.769Z,18.01
2022-12-01T16:25:50.543Z,18.01
2022-12-01T16:28:35.593Z,18.01
2022-12-01T16:31:04.896Z,18.00
2022-12-01T16:33:35.109Z,18.00
2022-12-01T16:36:01.645Z,17.98
2022-12-01T16:38:28.915Z,17.99
2022-12-01T16:40:59.654Z,17.99
2022-12-01T16:43:27.063Z,17.99
2022-12-01T16:46:03.615Z,17.99
2022-12-01T16:48:30.411Z,17.98
2022-12-01T16:50:57.393Z,17.97
2022-12-01T16:53:23.814Z,17.99
2022-12-01T16:55:53.042Z,17.97
2022-12-01T16:58:19.581Z,17.97
2022-12-01T17:00:47.946Z,17.97
2022-12-01T17:03:16.227Z,17.96
2022-12-01T17:05:42.841Z,17.98
2022-12-01T17:08:09.364Z,17.99
2022-12-01T17:10:35.931Z,17.99
2022-12-01T17:13:02.382Z,17.99
2022-12-01T17:15:28.828Z,18.01
2022-12-01T17:17:55.269Z,18.01
2022-12-01T17:20:21.738Z,18.01
2022-12-01T17:22:48.176Z,18.00
2022-12-01T17:25:14.598Z,18.00
2022-12-01T17:27:41.975Z,18.02
2022-12-01T17:30:08.677Z,18.01
2022-12-01T17:32:35.183Z,18.01
2022-12-01T17:35:01.863Z,18.02
2022-12-01T17:37:28.307Z,18.02
2022-12-01T17:39:54.791Z,18.03
2022-12-01T17:42:21.461Z,18.03
2022-12-01T17:44:48.161Z,18.02
2022-12-01T17:47:14.863Z,18.01
2022-12-01T17:49:41.297Z,18.02
2022-12-01T17:52:08.399Z,18.01
2022-12-01T17:54:34.881Z,18.02
2022-12-01T17:57:01.496Z,18.01
2022-12-01T17:59:28.026Z,18.00
2022-12-01T18:01:55.692Z,17.99
2022-12-01T18:04:22.173Z,18.00
2022-12-01T18:06:53.840Z,18.00
2022-12-01T18:09:21.262Z,18.00
2022-12-01T18:11:47.750Z,18.00
2022-12-01T18:14:17.764Z,18.00
2022-12-01T18:16:44.390Z,17.99
2022-12-01T18:19:11.078Z,17.99
2022-12-01T18:21:38.261Z,17.95
2022-12-01T18:24:05.120Z,17.98
2022-12-01T18:26:32.874Z,17.99
2022-12-01T18:29:00.450Z,17.99
2022-12-01T18:31:27.411Z,17.97
2022-12-01T18:33:53.979Z,17.97
2022-12-01T18:36:22.496Z,17.99
2022-12-01T18:38:50.071Z,17.98
2022-12-01T18:41:17.039Z,17.99
2022-12-01T18:43:43.980Z,17.98
2022-12-01T18:46:11.540Z,17.98
2022-12-01T18:48:38.218Z,17.99
2022-12-01T18:51:05.891Z,18.00
2022-12-01T18:53:32.971Z,17.99
2022-12-01T18:56:03.566Z,17.99
2022-12-01T18:58:30.714Z,17.99
2022-12-01T19:00:57.447Z,17.99
2022-12-01T19:03:23.946Z,17.99
2022-12-01T19:05:50.798Z,17.98
2022-12-01T19:08:17.286Z,17.99
2022-12-01T19:10:43.929Z,17.98
2022-12-01T19:13:10.366Z,17.98
2022-12-01T19:15:37.145Z,17.98
2022-12-01T19:18:03.703Z,17.99
2022-12-01T19:20:30.113Z,17.98
2022-12-01T19:22:56.677Z,17.98
2022-12-01T19:25:23.139Z,17.98
2022-12-01T19:27:51.152Z,17.97
2022-12-01T19:30:17.657Z,17.97
2022-12-01T19:32:44.487Z,17.96
2022-12-01T19:35:10.961Z,17.96
2022-12-01T19:37:37.450Z,17.95
2022-12-01T19:40:03.997Z,17.95
2022-12-01T19:42:30.395Z,17.95
2022-12-01T19:44:56.891Z,17.95
2022-12-01T19:47:23.328Z,17.94
2022-12-01T19:49:49.814Z,17.90
2022-12-01T19:52:16.307Z,17.90
2022-12-01T19:54:43.066Z,17.89
2022-12-01T19:57:09.525Z,17.87
2022-12-01T19:59:35.961Z,17.87
2022-12-01T20:02:02.404Z,17.85
2022-12-01T20:04:28.854Z,17.84
2022-12-01T20:06:55.443Z,17.83
2022-12-01T20:09:22.696Z,17.85
2022-12-01T20:11:49.095Z,17.84
2022-12-01T20:14:15.527Z,17.84
2022-12-01T20:16:42.127Z,17.84
2022-12-01T20:19:08.645Z,17.85
2022-12-01T20:21:35.967Z,17.86
2022-12-01T20:24:04.145Z,17.84
2022-12-01T20:26:32.430Z,17.86
2022-12-01T20:29:00.532Z,17.85
2022-12-01T20:31:27.769Z,17.83
2022-12-01T20:33:55.378Z,17.84
2022-12-01T20:36:22.149Z,17.82
2022-12-01T20:38:48.823Z,17.83
2022-12-01T20:41:15.400Z,17.82
2022-12-01T20:43:41.943Z,17.83
2022-12-01T20:46:08.507Z,17.83
2022-12-01T20:48:35.321Z,17.83
2022-12-01T20:51:02.651Z,17.82
2022-12-01T20:53:29.297Z,17.82
2022-12-01T20:55:55.886Z,17.83
2022-12-01T20:58:22.686Z,17.84
2022-12-01T21:00:49.281Z,17.83
2022-12-01T21:03:15.751Z,17.85
2022-12-01T21:05:43.467Z,17.85
2022-12-01T21:08:11.783Z,17.85
2022-12-01T21:10:38.975Z,17.85
2022-12-01T21:13:32.756Z,17.87
2022-12-01T21:16:04.933Z,17.85
2022-12-01T21:18:39.978Z,17.86
2022-12-01T21:21:12.482Z,17.86
2022-12-01T21:23:39.023Z,17.86
2022-12-01T21:26:09.564Z,17.85
2022-12-01T21:28:36.689Z,17.85
2022-12-01T21:31:10.988Z,17.86
2022-12-01T21:33:38.978Z,17.85
2022-12-01T21:36:13.661Z,17.83
2022-12-01T21:38:41.297Z,17.82
2022-12-01T21:41:26.603Z,17.81
2022-12-01T21:43:54.437Z,17.79
2022-12-01T21:46:20.934Z,17.79
2022-12-01T21:48:47.538Z,17.78
2022-12-01T21:51:20.999Z,17.76
2022-12-01T21:53:48.726Z,17.75
2022-12-01T21:56:19.852Z,17.75
2022-12-01T21:58:46.563Z,17.74
2022-12-01T22:01:21.004Z,17.74
2022-12-01T22:03:47.515Z,17.74
2022-12-01T22:06:31.048Z,17.75
2022-12-01T22:09:21.084Z,17.75
2022-12-01T22:11:51.001Z,17.72
2022-12-01T22:14:24.365Z,17.70
2022-12-01T22:16:58.099Z,17.72
2022-12-01T22:19:33.662Z,17.72
2022-12-01T22:22:09.330Z,17.72
2022-12-01T22:25:11.241Z,17.72
2022-12-01T22:27:43.296Z,17.71
2022-12-01T22:30:09.690Z,17.71
2022-12-01T22:32:42.760Z,17.70
2022-12-01T22:35:18.752Z,17.71
2022-12-01T22:37:47.976Z,17.68
2022-12-01T22:40:29.790Z,17.70
2022-12-01T22:42:56.346Z,17.70
2022-12-01T22:45:23.907Z,17.68
2022-12-01T22:47:51.612Z,17.67
2022-12-01T22:50:25.610Z,17.67
2022-12-01T22:52:52.762Z,17.66
2022-12-01T22:55:19.538Z,17.67
2022-12-01T22:57:46.162Z,17.66
2022-12-01T23:00:14.981Z,17.67
2022-12-01T23:02:41.510Z,17.65
2022-12-01T23:05:14.050Z,17.70
2022-12-01T23:07:42.439Z,17.68
2022-12-01T23:10:12.109Z,17.71
2022-12-01T23:12:38.947Z,17.70
2022-12-01T23:15:14.741Z,17.71
2022-12-01T23:17:41.210Z,17.73
2022-12-01T23:20:10.409Z,17.71
2022-12-01T23:22:40.277Z,17.73
2022-12-01T23:25:17.029Z,17.73
2022-12-01T23:27:44.833Z,17.74
2022-12-01T23:30:12.098Z,17.75
2022-12-01T23:32:38.598Z,17.75
2022-12-01T23:35:05.552Z,17.77
2022-12-01T23:37:34.017Z,17.78
2022-12-01T23:40:01.513Z,17.78
2022-12-01T23:42:28.003Z,17.78
2022-12-01T23:44:54.435Z,17.80
2022-12-01T23:47:28.883Z,17.79
2022-12-01T23:50:00.534Z,17.81
2022-12-01T23:52:32.352Z,17.81
2022-12-01T23:54:58.807Z,17.80
2022-12-01T23:57:25.497Z,17.80
